Flight Track Log - Related Links

Times and Time Zones

All times are in EDT time to prevent confusion due to time zone crossing. See the SKW4664 flight status page for this flight to view local times or setup timezone preferences in your user account.


Time Position Orientation Groundspeed Altitude Reporting Facility
EDT Latitude Longitude Course Direction KTS MPH feet Rate Location/Type
Mon 12:08:15 PM 43.6378 -96.6597 53° Northeast 180 207 4,800  Level Minneapolis Center
Mon 12:09:16 PM 43.6822 -96.5772 53° Northeast 232 267 6,900 2,293 Climbing Minneapolis Center
Mon 12:10:00 PM 43.8523 -96.2348 53° Northeast  Level FlightAware Approximate
Mon 12:10:18 PM 43.7325 -96.4881 52° Northeast 269 310 9,500  Level Minneapolis Center
Mon 12:11:00 PM 43.9221 -96.1068 52° Northeast  Level FlightAware Approximate
Mon 12:11:19 PM 43.7867 -96.3908 52° Northeast 295 339 11,400  Level Minneapolis Center
Mon 12:12:00 PM 43.9929 -95.9798 52° Northeast  Level FlightAware Approximate
Mon 12:12:21 PM 43.8586 -96.2617 52° Northeast 349 402 14,000  Level Minneapolis Center
Mon 12:13:22 PM 43.9186 -96.1531 52° Northeast 356 410 16,100 1,902 Climbing Minneapolis Center
Mon 12:14:24 PM 43.9783 -96.0433 53° Northeast 361 415 17,900 1,597 Climbing Minneapolis Center
Mon 12:15:26 PM 44.0406 -95.9300 53° Northeast 372 428 19,400 1,463 Climbing Minneapolis Center
Mon 12:16:27 PM 44.1042 -95.8117 53° Northeast 385 443 20,900 1,512 Climbing Minneapolis Center
Mon 12:17:29 PM 44.1822 -95.6689 53° Northeast 390 449 22,500 1,016 Climbing Minneapolis Center
Mon 12:18:31 PM 44.2489 -95.5436 53° Northeast 400 460 23,000 244 Climbing Minneapolis Center
Mon 12:19:32 PM 44.3200 -95.4100 53° Northeast 423 487 23,000  Level Minneapolis Center
Mon 12:20:34 PM 44.3925 -95.2733 53° Northeast 437 503 23,000  Level Minneapolis Center
Mon 12:21:36 PM 44.4639 -95.1353 54° Northeast 440 506 23,000  Level Minneapolis Center
Mon 12:22:37 PM 44.5044 -94.9722 71° East 445 512 23,000 -780 Level Minneapolis Center
Mon 12:23:39 PM 44.5447 -94.8072 71° East 448 516 21,400 -2,177 Descending Minneapolis Center
Mon 12:24:41 PM 44.5867 -94.6283 72° East 443 510 18,500 -2,710 Descending Minneapolis Center
Mon 12:25:43 PM 44.6208 -94.4783 72° East 407 468 15,800 -2,439 Descending Minneapolis Center
Mon 12:26:44 PM 44.6536 -94.3372 72° East 384 442 13,500 -2,293 Descending Minneapolis Center
Mon 12:27:46 PM 44.6892 -94.1786 72° East 354 407 11,100 -1,103 Descending Minneapolis Center
Mon 12:29:00 PM 44.7169 -94.0522 73° East 343 395 11,000 -41 Descending Minneapolis Center
Mon 12:30:14 PM 44.7519 -93.8967 72° East 349 402 11,000  Level Minneapolis Center
Mon 12:31:16 PM 44.7867 -93.7403 73° East 349 402 11,000  Level Minneapolis Center
Mon 12:32:18 PM 44.8086 -93.6414 73° East 332 382 11,000 -968 Level Minneapolis Center
Mon 12:33:20 PM 44.8378 -93.5092 73° East 294 338 9,000 -1,452 Descending Minneapolis Center
Mon 12:34:22 PM 44.8597 -93.4067 73° East 273 314 8,000 -484 Descending Minneapolis Center
Mon 12:35:24 PM 44.8239 -93.3261 122° Southeast 239 275 8,000 -484 Level Minneapolis Center
Mon 12:36:26 PM 44.7636 -93.2964 161° South 235 270 7,000 -1,122 Descending Minneapolis Center
Mon 12:37:27 PM 44.7014 -93.2889 175° South 232 267 5,700 -1,220 Descending Minneapolis Center
Mon 12:38:29 PM 44.6544 -93.2519 151° Southeast 224 258 4,500 -871 Descending Minneapolis Center
Mon 12:39:31 PM 44.7122 -93.2083 28° Northeast 211 243 3,900 -774 Descending Minneapolis Center
Mon 12:40:33 PM 44.7622 -93.2097 359° North 193 222 2,900 -968 Descending Minneapolis Center

Login

Don't have an account? Register now (free) for customized features, flight alerts, and more!